createdAt,value
2023-03-25T00:00:24.614Z,58.08
2023-03-25T00:02:54.128Z,57.38
2023-03-25T00:05:23.121Z,57.54
2023-03-25T00:07:53.433Z,57.50
2023-03-25T00:10:21.450Z,57.49
2023-03-25T00:12:49.108Z,57.86
2023-03-25T00:15:17.877Z,58.08
2023-03-25T00:17:46.004Z,58.10
2023-03-25T00:20:15.109Z,58.08
2023-03-25T00:22:44.309Z,57.93
2023-03-25T00:25:17.272Z,58.19
2023-03-25T00:27:46.658Z,57.72
2023-03-25T00:30:16.759Z,58.02
2023-03-25T00:32:45.916Z,58.25
2023-03-25T00:35:19.384Z,58.71
2023-03-25T00:37:47.833Z,58.93
2023-03-25T00:40:15.672Z,58.93
2023-03-25T00:42:44.755Z,59.03
2023-03-25T00:45:12.775Z,58.90
2023-03-25T00:47:41.552Z,58.89
2023-03-25T00:50:09.889Z,59.00
2023-03-25T00:52:39.149Z,59.08
2023-03-25T00:55:08.718Z,59.02
2023-03-25T00:57:36.528Z,58.75
2023-03-25T01:00:08.035Z,58.31
2023-03-25T01:02:36.225Z,58.66
2023-03-25T01:05:04.772Z,58.47
2023-03-25T01:07:32.985Z,58.49
2023-03-25T01:10:02.845Z,58.41
2023-03-25T01:12:30.464Z,58.42
2023-03-25T01:14:58.240Z,58.19
2023-03-25T01:17:25.965Z,58.08
2023-03-25T01:19:53.682Z,59.13
2023-03-25T01:22:21.393Z,61.52
2023-03-25T01:24:49.049Z,62.69
2023-03-25T01:27:18.128Z,63.56
2023-03-25T01:29:46.162Z,63.78
2023-03-25T01:32:13.890Z,63.05
2023-03-25T01:34:42.851Z,62.71
2023-03-25T01:37:11.022Z,62.79
2023-03-25T01:39:38.866Z,62.82
2023-03-25T01:42:06.825Z,62.42
2023-03-25T01:45:20.405Z,62.68
2023-03-25T01:47:52.791Z,63.85
2023-03-25T01:50:21.997Z,64.53
2023-03-25T01:52:53.160Z,65.05
2023-03-25T01:55:24.120Z,65.10
2023-03-25T01:57:55.700Z,65.48
2023-03-25T02:00:23.924Z,65.61
2023-03-25T02:02:54.794Z,65.78
2023-03-25T02:05:27.989Z,66.05
2023-03-25T02:07:57.983Z,66.16
2023-03-25T02:10:25.892Z,65.82
2023-03-25T02:12:56.127Z,65.37
2023-03-25T02:15:24.140Z,65.37
2023-03-25T02:18:21.195Z,65.35
2023-03-25T02:21:18.277Z,65.50
2023-03-25T02:24:14.069Z,65.65
2023-03-25T02:27:16.720Z,65.37
2023-03-25T02:30:12.042Z,66.35
2023-03-25T02:33:13.624Z,66.64
2023-03-25T02:35:58.461Z,66.80
2023-03-25T02:38:40.469Z,66.77
2023-03-25T02:41:14.840Z,65.40
2023-03-25T02:43:48.475Z,65.30
2023-03-25T02:46:18.525Z,65.03
2023-03-25T02:48:54.768Z,64.51
2023-03-25T02:51:26.943Z,64.80
2023-03-25T02:53:57.944Z,64.81
2023-03-25T02:56:27.343Z,64.45
2023-03-25T02:58:57.980Z,64.20
2023-03-25T03:01:27.223Z,63.69
2023-03-25T03:03:55.272Z,64.48
2023-03-25T03:06:25.816Z,64.50
2023-03-25T03:09:14.022Z,63.95
2023-03-25T03:11:53.066Z,64.26
2023-03-25T03:14:34.822Z,64.24
2023-03-25T03:17:09.383Z,64.62
2023-03-25T03:19:41.488Z,64.32
2023-03-25T03:22:21.690Z,64.35
2023-03-25T03:24:56.114Z,64.66
2023-03-25T03:27:33.988Z,65.20
2023-03-25T03:30:07.746Z,65.33
2023-03-25T03:32:43.477Z,64.67
2023-03-25T03:35:17.049Z,64.75
2023-03-25T03:37:48.783Z,64.64
2023-03-25T03:40:20.925Z,64.58
2023-03-25T03:42:54.524Z,64.90
2023-03-25T03:45:29.136Z,64.78
2023-03-25T03:48:01.655Z,64.78
2023-03-25T03:50:32.617Z,65.12
2023-03-25T03:53:06.088Z,65.38
2023-03-25T03:55:41.011Z,65.07
2023-03-25T03:58:15.229Z,64.22
2023-03-25T04:00:49.741Z,64.29
2023-03-25T04:03:24.587Z,64.66
2023-03-25T04:05:58.801Z,63.71
2023-03-25T04:08:31.545Z,63.04
2023-03-25T04:11:07.871Z,62.88
2023-03-25T04:13:39.906Z,62.79
2023-03-25T04:16:09.130Z,62.81
2023-03-25T04:18:36.946Z,62.15
2023-03-25T04:21:05.053Z,62.02
2023-03-25T04:23:34.130Z,62.24
2023-03-25T04:26:03.881Z,62.08
2023-03-25T04:28:32.031Z,62.13
2023-03-25T04:31:00.609Z,62.26
2023-03-25T04:33:30.029Z,62.50
2023-03-25T04:35:57.817Z,62.62
2023-03-25T04:38:25.724Z,62.33
2023-03-25T04:40:53.719Z,62.77
2023-03-25T04:43:22.816Z,62.80
2023-03-25T04:45:54.594Z,62.79
2023-03-25T04:48:26.036Z,63.29
2023-03-25T04:50:55.820Z,63.58
2023-03-25T04:53:23.747Z,63.66
2023-03-25T04:55:51.755Z,63.51
2023-03-25T04:58:19.646Z,63.44
2023-03-25T05:00:51.788Z,63.36
2023-03-25T05:03:23.994Z,63.75
2023-03-25T05:05:52.812Z,63.65
2023-03-25T05:08:21.648Z,63.82
2023-03-25T05:10:49.559Z,63.98
2023-03-25T05:13:18.514Z,64.14
2023-03-25T05:15:46.179Z,63.85
2023-03-25T05:18:16.824Z,64.08
2023-03-25T05:20:46.981Z,64.33
2023-03-25T05:23:17.946Z,64.28
2023-03-25T05:25:47.465Z,64.25
2023-03-25T05:28:15.857Z,64.74
2023-03-25T05:30:47.732Z,64.12
2023-03-25T05:33:18.950Z,63.84
2023-03-25T05:35:47.198Z,63.58
2023-03-25T05:38:18.307Z,63.30
2023-03-25T05:40:47.442Z,63.04
2023-03-25T05:43:15.839Z,63.30
2023-03-25T05:45:45.037Z,63.16
2023-03-25T05:48:12.871Z,62.90
2023-03-25T05:50:42.676Z,62.97
2023-03-25T05:53:12.379Z,62.80
2023-03-25T05:55:40.237Z,62.77
2023-03-25T05:58:08.004Z,62.87
2023-03-25T06:00:37.235Z,62.79
2023-03-25T06:03:08.328Z,63.28
2023-03-25T06:05:36.605Z,62.74
2023-03-25T06:08:05.658Z,62.28
2023-03-25T06:10:34.350Z,62.46
2023-03-25T06:13:02.029Z,62.50
2023-03-25T06:15:33.918Z,62.25
2023-03-25T06:18:05.106Z,62.29
2023-03-25T06:20:33.472Z,62.10
2023-03-25T06:23:02.720Z,62.65
2023-03-25T06:25:32.203Z,62.99
2023-03-25T06:28:03.305Z,62.97
2023-03-25T06:30:31.279Z,62.71
2023-03-25T06:33:03.310Z,62.33
2023-03-25T06:35:31.258Z,61.98
2023-03-25T06:37:58.940Z,62.18
2023-03-25T06:40:26.683Z,62.30
2023-03-25T06:42:55.698Z,62.23
2023-03-25T06:45:23.310Z,62.28
2023-03-25T06:47:51.164Z,62.17
2023-03-25T06:50:18.894Z,61.71
2023-03-25T06:52:46.607Z,61.56
2023-03-25T06:55:14.282Z,61.35
2023-03-25T06:57:43.336Z,61.44
2023-03-25T07:00:13.280Z,60.47
2023-03-25T07:02:41.041Z,60.02
2023-03-25T07:05:09.564Z,60.01
2023-03-25T07:07:37.303Z,59.43
2023-03-25T07:10:05.321Z,59.47
2023-03-25T07:12:35.468Z,59.61
2023-03-25T07:15:03.832Z,58.99
2023-03-25T07:17:32.990Z,58.56
2023-03-25T07:20:00.729Z,58.83
2023-03-25T07:22:28.484Z,58.69
2023-03-25T07:24:56.219Z,57.87
2023-03-25T07:27:23.978Z,57.70
2023-03-25T07:29:51.656Z,56.64
2023-03-25T07:32:19.472Z,57.25
2023-03-25T07:34:48.518Z,57.25
2023-03-25T07:37:16.471Z,57.59
2023-03-25T07:39:44.234Z,57.04
2023-03-25T07:42:11.931Z,56.60
2023-03-25T07:44:39.651Z,56.15
2023-03-25T07:47:07.365Z,55.92
2023-03-25T07:49:35.408Z,55.78
2023-03-25T07:52:04.488Z,56.49
2023-03-25T07:54:32.148Z,56.57
2023-03-25T07:57:00.366Z,57.33
2023-03-25T07:59:29.544Z,57.92
2023-03-25T08:01:57.402Z,57.73
2023-03-25T08:04:25.122Z,57.64
2023-03-25T08:06:52.889Z,57.21
2023-03-25T08:09:24.867Z,57.49
2023-03-25T08:11:52.891Z,57.40
2023-03-25T08:14:20.538Z,57.22
2023-03-25T08:16:48.290Z,57.05
2023-03-25T08:19:15.926Z,57.05
2023-03-25T08:21:43.715Z,56.90
2023-03-25T08:24:11.565Z,57.02
2023-03-25T08:26:40.580Z,56.81
2023-03-25T08:29:10.065Z,57.05
2023-03-25T08:31:38.925Z,56.34
2023-03-25T08:34:07.608Z,56.17
2023-03-25T08:36:39.384Z,56.51
2023-03-25T08:39:11.469Z,58.90
2023-03-25T08:41:40.710Z,58.04
2023-03-25T08:44:08.733Z,58.54
2023-03-25T08:46:37.002Z,59.07
2023-03-25T08:49:06.396Z,59.77
2023-03-25T08:51:34.114Z,60.44
2023-03-25T08:54:02.028Z,59.84
2023-03-25T08:56:29.895Z,59.30
2023-03-25T08:58:58.891Z,58.72
2023-03-25T09:01:26.943Z,58.53
2023-03-25T09:03:55.828Z,58.99
2023-03-25T09:06:26.052Z,59.60
2023-03-25T09:08:55.834Z,59.18
2023-03-25T09:11:34.139Z,59.05
2023-03-25T09:14:05.973Z,58.72
2023-03-25T09:16:34.896Z,58.55
2023-03-25T09:19:02.860Z,57.92
2023-03-25T09:21:30.633Z,58.73
2023-03-25T09:23:58.421Z,60.65
2023-03-25T09:26:26.464Z,60.26
2023-03-25T09:28:55.615Z,60.65
2023-03-25T09:31:26.038Z,60.74
2023-03-25T09:33:53.833Z,60.49
2023-03-25T09:36:21.561Z,60.30
2023-03-25T09:38:49.265Z,60.16
2023-03-25T09:41:31.017Z,58.96
2023-03-25T09:44:06.341Z,58.32
2023-03-25T09:46:48.862Z,59.09
2023-03-25T09:49:21.223Z,57.34
2023-03-25T09:51:51.968Z,56.80
2023-03-25T09:54:26.097Z,57.05
2023-03-25T09:56:58.644Z,58.15
2023-03-25T09:59:40.538Z,59.98
2023-03-25T10:02:21.318Z,51.97
2023-03-25T10:05:06.488Z,45.12
2023-03-25T10:07:46.130Z,44.10
2023-03-25T10:10:23.594Z,44.37
2023-03-25T10:12:59.644Z,46.04
2023-03-25T10:15:33.638Z,45.75
2023-03-25T10:18:24.542Z,45.19
2023-03-25T10:21:00.225Z,39.81
2023-03-25T10:23:35.717Z,33.74
2023-03-25T10:26:10.900Z,29.79
2023-03-25T10:28:43.868Z,28.34
2023-03-25T10:31:17.347Z,27.52
2023-03-25T10:33:54.208Z,25.57
2023-03-25T10:36:28.625Z,27.57
2023-03-25T10:38:56.486Z,30.66
2023-03-25T10:41:27.735Z,33.34
2023-03-25T10:43:59.506Z,35.91
2023-03-25T10:46:32.310Z,39.24
2023-03-25T10:49:01.453Z,42.83
2023-03-25T10:51:31.346Z,46.86
2023-03-25T10:54:00.616Z,50.81
2023-03-25T10:56:32.747Z,52.32
2023-03-25T10:59:07.053Z,50.23
2023-03-25T11:01:38.785Z,51.18
2023-03-25T11:04:10.605Z,49.76
2023-03-25T11:06:40.948Z,40.88
2023-03-25T11:09:18.431Z,35.29
2023-03-25T11:11:47.293Z,30.63
2023-03-25T11:14:16.603Z,25.72
2023-03-25T11:16:47.706Z,24.93
2023-03-25T11:19:25.274Z,24.75
2023-03-25T11:21:56.717Z,24.15
2023-03-25T11:24:31.106Z,21.53
2023-03-25T11:26:59.493Z,19.97
2023-03-25T11:29:28.402Z,17.91
2023-03-25T11:32:07.352Z,15.81
2023-03-25T11:34:42.036Z,15.04
2023-03-25T11:37:18.852Z,14.97
2023-03-25T11:39:50.952Z,16.47
2023-03-25T11:42:30.139Z,16.50
2023-03-25T11:44:59.593Z,16.90
2023-03-25T11:47:32.298Z,17.31
2023-03-25T11:50:02.239Z,18.56
2023-03-25T11:52:39.088Z,19.52
2023-03-25T11:55:07.719Z,19.99
2023-03-25T11:57:41.239Z,20.62
2023-03-25T12:00:34.545Z,21.33
2023-03-25T12:03:04.389Z,22.67
2023-03-25T12:05:34.855Z,24.39
2023-03-25T12:08:15.080Z,25.13
2023-03-25T12:10:54.242Z,25.78
2023-03-25T12:13:34.161Z,27.42
2023-03-25T12:16:16.229Z,27.85
2023-03-25T12:18:54.229Z,27.43
2023-03-25T12:21:35.042Z,29.39
2023-03-25T12:24:19.794Z,27.00
2023-03-25T12:26:55.719Z,24.58
2023-03-25T12:29:42.578Z,23.65
2023-03-25T12:32:21.197Z,25.11
2023-03-25T12:35:05.558Z,26.00
2023-03-25T12:37:43.235Z,27.70
2023-03-25T12:40:31.356Z,29.00
2023-03-25T12:43:05.605Z,30.56
2023-03-25T12:45:48.154Z,30.49
2023-03-25T12:48:30.281Z,30.33
2023-03-25T12:51:06.984Z,30.90
2023-03-25T12:53:57.867Z,32.52
2023-03-25T12:56:43.205Z,33.41
2023-03-25T12:59:29.349Z,34.32
2023-03-25T13:02:12.062Z,34.52
2023-03-25T13:04:54.951Z,34.68
2023-03-25T13:07:27.272Z,35.13
2023-03-25T13:10:03.845Z,35.74
2023-03-25T13:12:36.031Z,36.23
2023-03-25T13:15:08.909Z,36.85
2023-03-25T13:17:41.948Z,37.06
2023-03-25T13:20:13.485Z,37.38
2023-03-25T13:22:47.096Z,36.94
2023-03-25T13:25:27.129Z,36.88
2023-03-25T13:27:59.244Z,37.71
2023-03-25T13:30:32.436Z,37.72
2023-03-25T13:33:08.138Z,38.08
2023-03-25T13:35:41.534Z,37.38
2023-03-25T13:38:16.268Z,38.22
2023-03-25T13:40:51.334Z,37.32
2023-03-25T13:43:27.571Z,37.28
2023-03-25T13:46:00.915Z,37.91
2023-03-25T13:48:39.312Z,37.55
2023-03-25T13:51:09.956Z,38.33
2023-03-25T13:53:41.468Z,37.58
2023-03-25T13:56:45.485Z,37.86
2023-03-25T13:59:35.088Z,38.62
2023-03-25T14:02:25.423Z,38.21
2023-03-25T14:05:20.268Z,38.15
2023-03-25T14:08:10.729Z,38.38
2023-03-25T14:10:51.863Z,38.33
2023-03-25T14:13:26.617Z,38.44
2023-03-25T14:16:02.555Z,38.37
2023-03-25T14:18:32.188Z,37.88
2023-03-25T14:21:16.809Z,36.90
2023-03-25T14:23:44.770Z,37.20
2023-03-25T14:26:12.988Z,36.50
2023-03-25T14:28:46.042Z,36.40
2023-03-25T14:31:29.945Z,35.49
2023-03-25T14:34:24.572Z,36.73
2023-03-25T14:37:29.300Z,37.07
2023-03-25T14:40:00.286Z,36.90
2023-03-25T14:42:31.622Z,36.48
2023-03-25T14:45:38.933Z,35.50
2023-03-25T14:48:22.987Z,36.31
2023-03-25T14:51:09.543Z,36.91
2023-03-25T14:53:38.600Z,36.66
2023-03-25T14:56:08.526Z,36.40
2023-03-25T14:58:40.112Z,35.26
2023-03-25T15:01:12.846Z,35.73
2023-03-25T15:03:44.216Z,34.98
2023-03-25T15:06:16.776Z,35.35
2023-03-25T15:08:55.187Z,36.14
2023-03-25T15:11:28.520Z,35.88
2023-03-25T15:14:00.109Z,35.49
2023-03-25T15:16:39.071Z,35.09
2023-03-25T15:19:12.425Z,34.89
2023-03-25T15:22:11.219Z,34.96
2023-03-25T15:24:40.471Z,35.49
2023-03-25T15:27:15.782Z,36.21
2023-03-25T15:29:58.811Z,36.71
2023-03-25T15:32:44.119Z,35.94
2023-03-25T15:35:33.330Z,35.73
2023-03-25T15:38:42.600Z,36.31
2023-03-25T15:41:26.142Z,36.04
2023-03-25T15:44:11.418Z,35.79
2023-03-25T15:47:04.089Z,35.54
2023-03-25T15:49:50.465Z,36.36
2023-03-25T15:52:30.987Z,36.55
2023-03-25T15:55:01.763Z,36.60
2023-03-25T15:57:34.477Z,36.55
2023-03-25T16:00:12.838Z,35.94
2023-03-25T16:02:45.846Z,36.45
2023-03-25T16:05:17.413Z,36.83
2023-03-25T16:07:46.004Z,36.99
2023-03-25T16:10:17.137Z,36.98
2023-03-25T16:12:47.248Z,37.68
2023-03-25T16:15:17.260Z,37.41
2023-03-25T16:17:49.356Z,37.79
2023-03-25T16:20:22.837Z,37.42
2023-03-25T16:22:53.774Z,37.69
2023-03-25T16:25:27.388Z,37.62
2023-03-25T16:27:57.668Z,37.77
2023-03-25T16:30:28.860Z,38.16
2023-03-25T16:33:12.757Z,37.99
2023-03-25T16:35:46.339Z,37.55
2023-03-25T16:38:17.394Z,37.81
2023-03-25T16:40:46.860Z,37.68
2023-03-25T16:43:17.447Z,37.74
2023-03-25T16:45:46.498Z,38.01
2023-03-25T16:48:17.128Z,38.02
2023-03-25T16:50:47.164Z,38.27
2023-03-25T16:53:17.957Z,37.47
2023-03-25T16:55:48.814Z,37.86
2023-03-25T16:58:19.526Z,38.67
2023-03-25T17:00:51.691Z,38.80
2023-03-25T17:03:38.974Z,38.80
2023-03-25T17:06:19.473Z,39.33
2023-03-25T17:08:51.434Z,39.54
2023-03-25T17:11:19.199Z,39.99
2023-03-25T17:13:51.834Z,40.65
2023-03-25T17:16:21.361Z,40.88
2023-03-25T17:18:51.126Z,41.36
2023-03-25T17:21:26.653Z,41.74
2023-03-25T17:23:56.086Z,42.02
2023-03-25T17:26:26.536Z,42.58
2023-03-25T17:29:02.977Z,42.47
2023-03-25T17:31:34.292Z,42.41
2023-03-25T17:34:05.390Z,43.37
2023-03-25T17:36:36.297Z,44.68
2023-03-25T17:39:05.970Z,47.61
2023-03-25T17:41:38.533Z,48.05
2023-03-25T17:44:07.132Z,47.72
2023-03-25T17:46:35.237Z,51.66
2023-03-25T17:49:02.974Z,55.12
2023-03-25T17:51:31.574Z,57.86
2023-03-25T17:54:00.580Z,61.04
2023-03-25T17:56:29.491Z,62.58
2023-03-25T17:59:00.222Z,63.64
2023-03-25T18:01:28.608Z,65.26
2023-03-25T18:03:56.395Z,64.90
2023-03-25T18:06:24.593Z,64.34
2023-03-25T18:08:53.005Z,64.25
2023-03-25T18:11:22.358Z,63.87
2023-03-25T18:13:49.982Z,63.59
2023-03-25T18:16:19.446Z,63.61
2023-03-25T18:18:47.959Z,63.81
2023-03-25T18:21:20.060Z,64.30
2023-03-25T18:23:48.637Z,64.74
2023-03-25T18:26:19.205Z,64.93
2023-03-25T18:28:48.977Z,65.36
2023-03-25T18:31:18.494Z,65.82
2023-03-25T18:33:48.259Z,65.45
2023-03-25T18:36:16.557Z,64.42
2023-03-25T18:38:44.820Z,64.25
2023-03-25T18:41:14.406Z,64.18
2023-03-25T18:43:42.632Z,64.37
2023-03-25T18:46:14.062Z,64.59
2023-03-25T18:48:41.766Z,64.50
2023-03-25T18:51:12.336Z,64.30
2023-03-25T18:53:41.007Z,64.64
2023-03-25T18:56:09.812Z,64.96
2023-03-25T18:58:37.671Z,65.07
2023-03-25T19:01:07.357Z,65.69
2023-03-25T19:03:39.531Z,65.82
2023-03-25T19:06:09.274Z,65.95
2023-03-25T19:08:37.415Z,67.29
2023-03-25T19:11:17.001Z,67.29
2023-03-25T19:13:48.369Z,67.67
2023-03-25T19:16:16.555Z,68.24
2023-03-25T19:18:47.313Z,67.78
2023-03-25T19:21:17.051Z,67.66
2023-03-25T19:23:44.862Z,67.76
2023-03-25T19:26:12.613Z,67.77
2023-03-25T19:28:41.036Z,67.78
2023-03-25T19:31:08.879Z,67.98
2023-03-25T19:33:36.858Z,68.03
2023-03-25T19:36:06.935Z,67.70
2023-03-25T19:38:34.820Z,67.34
2023-03-25T19:41:05.820Z,67.61
2023-03-25T19:43:33.591Z,67.79
2023-03-25T19:46:01.628Z,67.74
2023-03-25T19:48:30.495Z,67.36
2023-03-25T19:50:59.046Z,66.94
2023-03-25T19:53:28.870Z,66.79
2023-03-25T19:55:57.250Z,66.49
2023-03-25T19:58:25.400Z,66.94
2023-03-25T20:00:53.105Z,66.70
2023-03-25T20:03:22.593Z,66.53
2023-03-25T20:05:50.899Z,66.36
2023-03-25T20:08:18.635Z,65.93
2023-03-25T20:10:48.697Z,65.95
2023-03-25T20:13:16.387Z,65.75
2023-03-25T20:15:44.085Z,65.69
2023-03-25T20:18:11.712Z,65.75
2023-03-25T20:20:41.070Z,65.40
2023-03-25T20:23:08.848Z,64.85
2023-03-25T20:25:36.552Z,64.57
2023-03-25T20:28:06.086Z,64.28
2023-03-25T20:30:35.481Z,64.17
2023-03-25T20:33:06.313Z,64.14
2023-03-25T20:35:34.139Z,63.52
2023-03-25T20:38:01.883Z,63.71
2023-03-25T20:40:37.813Z,63.82
2023-03-25T20:43:14.550Z,64.15
2023-03-25T20:45:45.419Z,63.98
2023-03-25T20:48:13.162Z,64.18
2023-03-25T20:50:40.906Z,64.68
2023-03-25T20:53:08.868Z,64.73
2023-03-25T20:55:37.266Z,64.58
2023-03-25T20:58:05.694Z,65.00
2023-03-25T21:00:35.134Z,64.84
2023-03-25T21:03:03.087Z,65.23
2023-03-25T21:05:30.842Z,65.30
2023-03-25T21:07:58.728Z,65.65
2023-03-25T21:10:27.160Z,66.26
2023-03-25T21:12:57.915Z,66.27
2023-03-25T21:15:26.180Z,65.95
2023-03-25T21:17:55.507Z,66.47
2023-03-25T21:20:23.925Z,66.56
2023-03-25T21:22:52.020Z,66.45
2023-03-25T21:25:19.848Z,66.66
2023-03-25T21:27:47.527Z,66.99
2023-03-25T21:30:16.108Z,67.56
2023-03-25T21:32:49.905Z,67.46
2023-03-25T21:35:19.232Z,67.30
2023-03-25T21:37:47.020Z,67.24
2023-03-25T21:40:14.617Z,66.31
2023-03-25T21:42:45.678Z,65.39
2023-03-25T21:45:16.370Z,64.76
2023-03-25T21:47:45.082Z,64.49
2023-03-25T21:50:14.223Z,64.51
2023-03-25T21:52:46.670Z,64.49
2023-03-25T21:55:16.007Z,64.37
2023-03-25T21:57:47.481Z,63.92
2023-03-25T22:00:18.205Z,63.50
2023-03-25T22:02:47.328Z,63.64
2023-03-25T22:05:16.899Z,65.13
2023-03-25T22:07:46.176Z,65.29
2023-03-25T22:10:15.043Z,63.71
2023-03-25T22:12:42.646Z,63.89
2023-03-25T22:15:14.351Z,63.93
2023-03-25T22:17:42.091Z,63.54
2023-03-25T22:20:12.068Z,63.05
2023-03-25T22:22:40.053Z,63.18
2023-03-25T22:25:10.369Z,63.15
2023-03-25T22:27:38.223Z,63.54
2023-03-25T22:30:08.154Z,63.37
2023-03-25T22:32:36.112Z,63.47
2023-03-25T22:35:04.279Z,63.36
2023-03-25T22:37:32.090Z,63.46
2023-03-25T22:40:01.964Z,63.49
2023-03-25T22:42:31.036Z,63.51
2023-03-25T22:44:58.724Z,63.92
2023-03-25T22:47:26.387Z,64.27
2023-03-25T22:49:54.048Z,64.26
2023-03-25T22:52:21.789Z,64.21
2023-03-25T22:54:49.469Z,64.42
2023-03-25T22:57:18.296Z,64.84
2023-03-25T22:59:50.978Z,64.53
2023-03-25T23:02:18.811Z,64.67
2023-03-25T23:04:46.738Z,65.05
2023-03-25T23:07:14.467Z,65.42
2023-03-25T23:09:42.771Z,65.25
2023-03-25T23:12:11.696Z,65.24
2023-03-25T23:14:40.455Z,64.96
2023-03-25T23:17:10.336Z,65.05
2023-03-25T23:19:38.118Z,64.75
2023-03-25T23:22:06.123Z,65.04
2023-03-25T23:24:36.837Z,65.08
2023-03-25T23:27:05.724Z,65.27
2023-03-25T23:29:35.838Z,65.96
2023-03-25T23:32:04.873Z,66.17
2023-03-25T23:34:34.908Z,67.18
2023-03-25T23:37:02.710Z,67.08
2023-03-25T23:39:30.979Z,67.23
2023-03-25T23:41:58.634Z,67.24
2023-03-25T23:44:26.399Z,67.39
2023-03-25T23:46:56.135Z,67.46
2023-03-25T23:49:23.990Z,67.62
2023-03-25T23:51:53.111Z,67.20
2023-03-25T23:54:20.822Z,66.99
2023-03-25T23:56:48.565Z,66.88
2023-03-25T23:59:16.287Z,67.11
